Time;durP1;ratioP1;P1;durP2;ratioP2;P2;SDS_P1;SDS_P2;PMS_P1;PMS_P2;Temp;Humidity;BMP_temperature;BMP_pressure;BME280_temperature;BME280_humidity;BME280_pressure;Samples;Min_cycle;Max_cycle;Signal;HPM_P1;HPM_P2
2021/05/09 00:00:01;;;;;;;11.00;9.90;;;11.10;91.20;;;;;;5069640;28;20117;-66
2021/05/09 00:02:27;;;;;;;12.45;10.23;;;11.00;93.80;;;;;;5060373;28;20076;-66
2021/05/09 00:04:55;;;;;;;9.57;8.43;;;11.00;93.50;;;;;;5052118;28;20059;-65
2021/05/09 00:07:20;;;;;;;10.98;9.30;;;11.00;92.20;;;;;;5068500;28;20479;-66
2021/05/09 00:09:46;;;;;;;10.43;9.43;;;11.00;94.00;;;;;;5069577;28;20040;-66
2021/05/09 00:12:12;;;;;;;11.32;9.52;;;10.90;92.50;;;;;;5051320;28;20047;-66
2021/05/09 00:14:38;;;;;;;12.60;10.50;;;10.90;92.50;;;;;;5069013;28;20028;-66
2021/05/09 00:17:04;;;;;;;11.07;9.98;;;10.80;93.60;;;;;;5069303;28;20029;-66
2021/05/09 00:19:30;;;;;;;9.70;8.80;;;10.80;93.70;;;;;;5070227;28;20152;-66
2021/05/09 00:21:56;;;;;;;11.30;10.20;;;10.80;93.10;;;;;;5068345;28;20054;-66
2021/05/09 00:24:22;;;;;;;10.70;9.52;;;10.90;93.40;;;;;;5068624;28;20426;-66
2021/05/09 00:26:47;;;;;;;11.05;9.82;;;10.90;94.00;;;;;;5067432;28;20040;-66
2021/05/09 00:29:13;;;;;;;11.68;10.45;;;10.80;93.50;;;;;;5068343;28;20089;-66
2021/05/09 00:31:39;;;;;;;12.20;10.32;;;10.80;94.10;;;;;;5064685;28;20040;-66
2021/05/09 00:34:05;;;;;;;10.88;9.52;;;10.80;94.30;;;;;;5070176;28;20044;-66
2021/05/09 00:36:31;;;;;;;12.95;10.32;;;10.80;94.30;;;;;;5067413;28;20044;-66
2021/05/09 00:38:56;;;;;;;11.68;10.38;;;10.80;94.10;;;;;;5055458;28;20037;-66
2021/05/09 00:41:22;;;;;;;11.13;8.82;;;10.80;94.60;;;;;;5064632;28;20553;-66
2021/05/09 00:43:48;;;;;;;10.32;9.35;;;10.70;94.60;;;;;;5069409;28;20336;-66
2021/05/09 00:46:13;;;;;;;10.80;9.70;;;10.70;94.10;;;;;;5051956;28;20040;-66
2021/05/09 00:48:39;;;;;;;10.02;8.95;;;10.60;94.40;;;;;;5051171;28;20064;-66
2021/05/09 00:51:05;;;;;;;10.57;9.50;;;10.50;94.00;;;;;;5068420;28;20053;-66
2021/05/09 00:53:33;;;;;;;10.68;9.15;;;10.50;94.20;;;;;;5069312;28;20063;-66
2021/05/09 00:56:01;;;;;;;11.10;9.77;;;10.40;94.40;;;;;;5064871;28;20043;-66
2021/05/09 00:58:28;;;;;;;11.15;8.95;;;10.40;94.70;;;;;;5068399;28;20123;-66
2021/05/09 01:00:53;;;;;;;11.70;9.70;;;10.30;94.70;;;;;;5062370;28;20100;-66
2021/05/09 01:03:26;;;;;;;9.68;8.68;;;10.30;95.00;;;;;;5050744;28;20060;-66
2021/05/09 01:05:54;;;;;;;10.20;9.20;;;10.20;94.60;;;;;;5069683;28;20032;-66
2021/05/09 01:08:20;;;;;;;12.07;9.23;;;10.20;94.60;;;;;;5050107;28;20044;-66
2021/05/09 01:10:45;;;;;;;12.73;9.73;;;10.10;94.70;;;;;;5067674;28;20436;-65
2021/05/09 01:13:11;;;;;;;10.63;9.43;;;10.10;94.90;;;;;;5049893;28;20041;-66
2021/05/09 01:15:42;;;;;;;10.52;9.43;;;10.10;95.10;;;;;;5068823;28;20040;-66
2021/05/09 01:18:08;;;;;;;10.60;9.25;;;10.00;95.30;;;;;;5051517;28;20119;-66
2021/05/09 01:20:36;;;;;;;11.05;9.95;;;10.00;95.40;;;;;;5069130;28;20116;-66
2021/05/09 01:23:04;;;;;;;12.20;10.60;;;10.00;95.40;;;;;;5069068;28;20045;-66
2021/05/09 01:25:30;;;;;;;13.48;10.75;;;10.00;95.40;;;;;;5068032;28;20041;-66
2021/05/09 01:27:58;;;;;;;13.98;10.82;;;9.90;95.60;;;;;;5059126;28;20032;-66
2021/05/09 01:30:24;;;;;;;12.68;10.68;;;9.90;95.90;;;;;;5064238;28;20078;-66
2021/05/09 01:32:50;;;;;;;14.40;10.23;;;9.90;95.60;;;;;;5049997;28;20102;-67
2021/05/09 01:35:16;;;;;;;13.68;10.30;;;9.90;95.90;;;;;;5060535;28;20067;-67
2021/05/09 01:37:42;;;;;;;14.52;10.27;;;9.90;95.60;;;;;;5052069;28;20040;-67
2021/05/09 01:40:11;;;;;;;11.20;10.10;;;9.80;95.80;;;;;;5067616;28;20088;-67
2021/05/09 01:42:37;;;;;;;11.13;9.82;;;9.80;95.80;;;;;;5067531;28;20076;-67
2021/05/09 01:45:03;;;;;;;12.88;11.18;;;9.80;95.80;;;;;;5069071;28;20072;-67
2021/05/09 01:47:29;;;;;;;14.32;10.32;;;9.70;96.10;;;;;;5067384;28;20036;-66
2021/05/09 01:49:54;;;;;;;9.35;8.23;;;9.70;96.30;;;;;;5072092;28;20176;-66
2021/05/09 01:52:20;;;;;;;15.77;10.10;;;9.60;96.20;;;;;;5073188;28;20040;-66
2021/05/09 01:54:46;;;;;;;14.55;10.80;;;9.60;96.30;;;;;;5073856;28;20105;-66
2021/05/09 01:57:12;;;;;;;12.10;10.52;;;9.60;96.30;;;;;;5054050;28;20116;-66
2021/05/09 01:59:38;;;;;;;9.48;8.65;;;9.50;96.20;;;;;;5072701;28;20090;-66
2021/05/09 02:02:04;;;;;;;11.45;10.27;;;9.50;96.30;;;;;;5073451;28;20054;-66
2021/05/09 02:04:37;;;;;;;11.60;9.90;;;9.50;96.20;;;;;;5072775;28;20044;-65
2021/05/09 02:07:23;;;;;;;11.00;9.63;;;9.40;96.90;;;;;;5044681;28;20396;-65
2021/05/09 02:09:48;;;;;;;11.70;10.00;;;9.40;96.40;;;;;;5070554;28;20033;-66
2021/05/09 02:12:14;;;;;;;12.70;10.27;;;9.40;96.70;;;;;;5064882;28;20071;-66
2021/05/09 02:14:40;;;;;;;12.88;10.27;;;9.40;96.80;;;;;;5067145;28;20035;-66
2021/05/09 02:17:06;;;;;;;13.07;10.43;;;9.30;96.60;;;;;;5071437;28;20064;-66
2021/05/09 02:19:33;;;;;;;13.55;9.68;;;9.30;97.10;;;;;;5069757;28;20419;-66
2021/05/09 02:21:59;;;;;;;15.73;11.27;;;9.30;97.10;;;;;;5053401;28;20129;-66
2021/05/09 02:24:25;;;;;;;12.50;9.43;;;9.30;97.10;;;;;;5068480;28;20041;-66
2021/05/09 02:26:51;;;;;;;13.20;9.80;;;9.30;96.30;;;;;;5054488;28;20041;-66
2021/05/09 02:29:16;;;;;;;11.55;10.45;;;9.30;96.60;;;;;;5053236;28;20437;-66
2021/05/09 02:31:42;;;;;;;11.63;10.43;;;9.30;96.80;;;;;;5070323;28;20060;-66
2021/05/09 02:34:08;;;;;;;12.88;10.68;;;9.20;96.90;;;;;;5069447;28;20044;-67
2021/05/09 02:36:34;;;;;;;13.23;10.35;;;9.20;97.30;;;;;;5071078;28;20097;-66
2021/05/09 02:39:00;;;;;;;12.18;10.82;;;9.20;97.40;;;;;;5039049;28;21152;-67
2021/05/09 02:41:25;;;;;;;14.02;10.70;;;9.20;97.70;;;;;;5070983;28;20064;-67
2021/05/09 02:43:51;;;;;;;12.70;10.25;;;9.20;97.80;;;;;;5071886;28;20040;-67
2021/05/09 02:46:17;;;;;;;13.25;10.13;;;9.10;97.60;;;;;;5071554;28;20047;-67
2021/05/09 02:48:42;;;;;;;12.63;11.32;;;9.10;97.50;;;;;;5052531;28;20036;-66
2021/05/09 02:51:08;;;;;;;13.32;10.68;;;9.10;97.40;;;;;;5071007;28;20076;-67
2021/05/09 02:53:34;;;;;;;11.93;10.55;;;9.00;97.40;;;;;;5071214;28;20505;-67
2021/05/09 02:56:04;;;;;;;10.57;9.43;;;9.00;97.30;;;;;;5070757;28;20116;-67
2021/05/09 02:58:31;;;;;;;10.45;8.65;;;9.00;96.50;;;;;;5070721;28;20037;-67
2021/05/09 03:00:56;;;;;;;10.77;8.52;;;8.90;96.10;;;;;;5069971;28;20403;-67
2021/05/09 03:03:22;;;;;;;11.20;10.00;;;8.90;96.40;;;;;;5057978;28;20403;-67
2021/05/09 03:05:47;;;;;;;13.63;10.52;;;8.90;96.40;;;;;;5069747;28;20093;-67
2021/05/09 03:08:13;;;;;;;13.05;10.20;;;8.90;96.40;;;;;;5070144;28;20041;-67
2021/05/09 03:10:39;;;;;;;13.30;10.80;;;8.90;96.50;;;;;;5071080;28;20033;-67
2021/05/09 03:13:05;;;;;;;12.32;10.63;;;8.90;96.00;;;;;;5070449;28;20036;-67
2021/05/09 03:15:30;;;;;;;11.40;9.23;;;8.90;96.30;;;;;;5062793;28;20519;-67
2021/05/09 03:17:56;;;;;;;11.35;10.15;;;8.90;95.20;;;;;;5066578;28;20041;-67
2021/05/09 03:20:22;;;;;;;12.52;9.95;;;8.90;94.40;;;;;;5072326;28;20087;-67
2021/05/09 03:22:47;;;;;;;12.77;9.88;;;8.90;94.20;;;;;;5060882;28;20107;-67
2021/05/09 03:25:14;;;;;;;10.23;8.73;;;8.90;94.50;;;;;;5069631;28;20113;-67
2021/05/09 03:27:39;;;;;;;14.90;9.93;;;8.90;94.40;;;;;;5069894;28;20483;-67
2021/05/09 03:30:06;;;;;;;12.23;9.55;;;8.90;94.10;;;;;;5070509;28;20046;-67
2021/05/09 03:32:31;;;;;;;11.00;9.40;;;8.90;92.80;;;;;;5068445;28;20131;-67
2021/05/09 03:34:57;;;;;;;10.82;8.40;;;8.90;92.80;;;;;;5052400;28;20736;-67
2021/05/09 03:37:22;;;;;;;10.27;9.05;;;9.00;92.00;;;;;;5062967;28;20112;-67
2021/05/09 03:39:48;;;;;;;14.93;9.43;;;9.00;92.70;;;;;;5036415;28;20048;-67
2021/05/09 03:42:14;;;;;;;13.30;9.38;;;9.00;92.70;;;;;;5067065;28;20399;-67
2021/05/09 03:44:39;;;;;;;15.23;10.48;;;9.00;92.20;;;;;;5051507;28;20040;-67
2021/05/09 03:47:05;;;;;;;12.10;9.15;;;9.10;92.10;;;;;;5070821;28;20543;-67
2021/05/09 03:49:31;;;;;;;12.88;9.20;;;9.10;91.50;;;;;;5068682;28;20063;-67
2021/05/09 03:51:57;;;;;;;13.30;9.15;;;9.10;91.20;;;;;;5061376;28;20065;-67
2021/05/09 03:54:23;;;;;;;12.02;9.27;;;9.10;91.00;;;;;;5043229;28;20063;-67
2021/05/09 03:56:49;;;;;;;11.00;7.95;;;9.10;90.80;;;;;;5070606;28;20033;-67
2021/05/09 03:59:15;;;;;;;14.60;9.45;;;9.10;90.50;;;;;;5069155;28;20160;-67
2021/05/09 04:01:42;;;;;;;10.25;9.10;;;9.20;91.30;;;;;;5065419;28;20045;-67
2021/05/09 04:04:07;;;;;;;10.68;8.82;;;9.20;91.50;;;;;;5068791;28;20037;-67
2021/05/09 04:06:33;;;;;;;12.85;8.13;;;9.20;91.20;;;;;;5069673;28;20117;-67
2021/05/09 04:08:59;;;;;;;10.88;8.68;;;9.30;90.20;;;;;;5069846;28;20036;-67
2021/05/09 04:11:24;;;;;;;12.32;8.70;;;9.30;90.40;;;;;;5069421;28;20098;-67
2021/05/09 04:13:50;;;;;;;8.88;7.60;;;9.30;89.70;;;;;;5069469;28;20538;-67
2021/05/09 04:16:17;;;;;;;11.32;8.30;;;9.30;89.90;;;;;;5070214;28;20044;-67
2021/05/09 04:18:43;;;;;;;11.40;7.75;;;9.30;89.10;;;;;;5069420;28;20074;-67
2021/05/09 04:21:09;;;;;;;11.95;8.52;;;9.40;88.00;;;;;;5069503;28;20476;-67
2021/05/09 04:23:34;;;;;;;11.75;8.10;;;9.40;88.80;;;;;;5068925;28;20034;-67
2021/05/09 04:26:01;;;;;;;12.25;8.13;;;9.40;89.20;;;;;;5051307;28;20537;-67
2021/05/09 04:28:27;;;;;;;12.50;8.32;;;9.50;90.10;;;;;;5065189;28;20041;-67
2021/05/09 04:30:53;;;;;;;8.00;7.18;;;9.50;90.40;;;;;;5048056;28;20075;-67
2021/05/09 04:33:23;;;;;;;10.50;7.88;;;9.50;88.60;;;;;;5068335;28;20071;-67
2021/05/09 04:35:49;;;;;;;9.38;7.20;;;9.70;88.60;;;;;;5057478;28;20060;-67
2021/05/09 04:38:15;;;;;;;7.70;6.65;;;9.70;86.10;;;;;;5069061;28;20126;-67
2021/05/09 04:40:42;;;;;;;9.38;7.03;;;9.80;84.50;;;;;;5056444;28;20053;-67
2021/05/09 04:43:09;;;;;;;8.18;6.70;;;10.00;84.70;;;;;;5070523;28;20029;-67
2021/05/09 04:45:35;;;;;;;9.98;7.22;;;10.10;85.10;;;;;;5069310;28;20067;-67
2021/05/09 04:48:02;;;;;;;7.88;6.75;;;10.20;84.80;;;;;;5070477;28;20043;-67
2021/05/09 04:50:27;;;;;;;7.20;6.30;;;10.30;84.40;;;;;;5048784;28;20056;-67
2021/05/09 04:52:54;;;;;;;7.82;6.32;;;10.50;82.10;;;;;;5070498;28;20037;-67
2021/05/09 04:55:19;;;;;;;10.18;7.20;;;10.70;83.40;;;;;;5040231;28;20037;-67
2021/05/09 04:57:46;;;;;;;8.52;6.88;;;10.80;83.00;;;;;;5032374;28;20033;-67
2021/05/09 05:00:14;;;;;;;8.02;6.35;;;11.00;80.80;;;;;;5060819;28;20066;-67
2021/05/09 05:02:42;;;;;;;9.07;6.00;;;11.10;79.70;;;;;;5051555;28;20064;-67
2021/05/09 05:05:08;;;;;;;8.82;6.65;;;11.20;79.30;;;;;;5068702;28;20032;-67
2021/05/09 05:07:34;;;;;;;9.93;6.95;;;11.30;80.50;;;;;;5063894;28;20083;-67
2021/05/09 05:09:59;;;;;;;6.53;5.80;;;11.40;77.10;;;;;;5064423;28;20503;-67
2021/05/09 05:12:25;;;;;;;7.97;5.85;;;11.50;79.80;;;;;;5070092;28;20063;-67
2021/05/09 05:14:50;;;;;;;9.90;6.40;;;11.60;77.10;;;;;;5070418;28;20067;-67
2021/05/09 05:17:16;;;;;;;7.45;5.55;;;11.60;79.90;;;;;;5070486;28;20059;-67
2021/05/09 05:19:42;;;;;;;8.07;6.20;;;11.70;77.90;;;;;;5070267;28;20354;-67
2021/05/09 05:22:08;;;;;;;8.98;6.43;;;11.70;78.00;;;;;;5068689;28;20051;-67
2021/05/09 05:24:34;;;;;;;7.22;6.18;;;11.80;79.10;;;;;;5065575;28;20458;-67
2021/05/09 05:27:00;;;;;;;8.48;6.65;;;11.90;77.90;;;;;;5068918;28;20041;-67
2021/05/09 05:29:25;;;;;;;7.63;5.95;;;12.10;79.40;;;;;;5069780;28;20048;-67
2021/05/09 05:31:51;;;;;;;9.18;6.18;;;12.20;78.60;;;;;;5069937;28;20291;-67
2021/05/09 05:34:18;;;;;;;7.00;5.78;;;12.30;80.70;;;;;;5068632;28;20036;-67
2021/05/09 05:36:45;;;;;;;9.90;6.15;;;12.50;76.50;;;;;;5069797;28;20048;-67
2021/05/09 05:39:12;;;;;;;6.85;5.90;;;12.60;79.50;;;;;;5069607;28;20119;-67
2021/05/09 05:41:37;;;;;;;7.60;5.55;;;12.80;78.60;;;;;;5069771;28;20050;-67
2021/05/09 05:44:04;;;;;;;7.32;5.72;;;13.00;74.50;;;;;;5052195;28;20119;-67
2021/05/09 05:46:30;;;;;;;6.93;6.13;;;13.20;75.60;;;;;;5051277;28;20094;-67
2021/05/09 05:48:56;;;;;;;5.95;5.00;;;13.40;79.20;;;;;;5032265;28;20049;-67
2021/05/09 05:51:22;;;;;;;6.80;5.10;;;14.50;72.70;;;;;;5060570;28;20052;-68
2021/05/09 05:53:48;;;;;;;6.65;4.72;;;15.80;70.10;;;;;;5069865;28;20085;-68
2021/05/09 05:56:14;;;;;;;7.63;5.22;;;17.00;71.00;;;;;;5069632;28;20040;-66
2021/05/09 05:58:40;;;;;;;6.80;5.05;;;17.90;64.90;;;;;;5069669;28;20412;-66
2021/05/09 06:01:06;;;;;;;6.82;5.53;;;18.60;66.90;;;;;;5067910;28;20040;-67
2021/05/09 06:03:31;;;;;;;6.55;4.93;;;19.20;62.80;;;;;;5065927;28;20072;-67
2021/05/09 06:05:57;;;;;;;5.60;3.97;;;19.60;58.50;;;;;;5064610;28;20032;-67
2021/05/09 06:08:24;;;;;;;6.25;4.90;;;20.00;56.60;;;;;;5067980;28;20044;-67
2021/05/09 06:10:54;;;;;;;5.43;4.72;;;20.60;58.30;;;;;;5066194;28;20089;-68
2021/05/09 06:13:21;;;;;;;4.35;4.00;;;21.00;56.10;;;;;;5062739;28;20036;-66
2021/05/09 06:15:47;;;;;;;5.22;4.10;;;21.30;56.90;;;;;;5042877;28;20037;-67
2021/05/09 06:18:13;;;;;;;4.32;3.78;;;21.50;55.00;;;;;;5063613;28;20063;-68
2021/05/09 06:20:38;;;;;;;5.32;4.32;;;22.20;53.00;;;;;;5055323;28;20464;-67
2021/05/09 06:23:04;;;;;;;4.65;3.63;;;22.80;50.40;;;;;;5069374;28;20032;-67
2021/05/09 06:25:33;;;;;;;4.90;4.05;;;22.90;49.90;;;;;;5067265;28;20174;-67
2021/05/09 06:27:59;;;;;;;5.32;4.20;;;23.20;50.50;;;;;;5059178;28;20041;-67
2021/05/09 06:30:25;;;;;;;5.57;4.45;;;23.40;47.80;;;;;;5046763;28;20098;-67
2021/05/09 06:32:51;;;;;;;4.50;3.60;;;23.60;49.30;;;;;;5066846;28;20132;-68
2021/05/09 06:35:17;;;;;;;6.32;4.03;;;23.80;49.30;;;;;;5050679;28;20043;-67
2021/05/09 06:37:44;;;;;;;6.18;3.95;;;24.10;48.30;;;;;;5071453;28;20063;-67
2021/05/09 06:40:10;;;;;;;3.60;3.30;;;24.50;47.10;;;;;;5071512;28;20492;-67
2021/05/09 06:42:36;;;;;;;5.18;4.03;;;24.60;44.10;;;;;;5039959;28;20055;-66
2021/05/09 06:45:11;;;;;;;5.32;4.45;;;24.70;45.50;;;;;;5066810;28;20076;-66
2021/05/09 06:47:37;;;;;;;6.45;3.92;;;24.40;44.60;;;;;;5061609;28;20464;-66
2021/05/09 06:50:02;;;;;;;4.40;3.88;;;24.10;44.70;;;;;;5066450;28;20046;-66
2021/05/09 06:52:28;;;;;;;4.95;4.00;;;24.10;45.70;;;;;;5067070;28;20041;-66
2021/05/09 06:54:54;;;;;;;5.72;4.18;;;24.20;44.90;;;;;;5070751;28;20129;-67
2021/05/09 06:57:20;;;;;;;7.40;3.90;;;24.30;45.00;;;;;;5068059;28;20064;-67
2021/05/09 06:59:45;;;;;;;4.70;3.78;;;24.20;45.00;;;;;;5070004;28;20036;-67
2021/05/09 07:02:12;;;;;;;6.45;3.90;;;24.40;44.80;;;;;;5065773;28;20048;-67
2021/05/09 07:04:38;;;;;;;5.85;4.25;;;24.70;43.40;;;;;;5051956;28;20482;-67
2021/05/09 07:07:04;;;;;;;7.30;4.10;;;25.00;42.30;;;;;;5070087;28;20040;-67
2021/05/09 07:09:29;;;;;;;5.35;4.00;;;24.90;44.70;;;;;;5074662;28;20029;-66
2021/05/09 07:11:55;;;;;;;4.93;4.00;;;25.10;43.60;;;;;;5053001;28;20042;-66
2021/05/09 07:14:20;;;;;;;4.90;3.72;;;25.10;44.00;;;;;;5072096;28;20498;-66
2021/05/09 07:16:46;;;;;;;5.70;3.50;;;25.10;44.30;;;;;;5051822;28;20048;-66
2021/05/09 07:19:12;;;;;;;6.68;4.30;;;24.80;43.10;;;;;;5054055;28;20085;-66
2021/05/09 07:21:47;;;;;;;6.25;4.20;;;24.80;44.10;;;;;;5072320;28;20102;-66
2021/05/09 07:24:12;;;;;;;5.40;4.00;;;24.60;43.10;;;;;;5070212;28;20052;-67
2021/05/09 07:26:38;;;;;;;5.70;3.83;;;24.50;44.00;;;;;;5070906;28;20464;-67
2021/05/09 07:29:05;;;;;;;6.53;3.97;;;24.40;42.60;;;;;;5068311;28;20036;-67
2021/05/09 07:31:40;;;;;;;4.82;4.07;;;24.50;43.10;;;;;;5045131;28;20052;-66
2021/05/09 07:34:06;;;;;;;6.20;3.58;;;24.30;45.50;;;;;;5053945;28;20116;-66
2021/05/09 07:36:31;;;;;;;3.53;2.90;;;24.30;44.50;;;;;;5070056;28;20145;-66
2021/05/09 07:38:57;;;;;;;4.35;3.58;;;24.30;42.90;;;;;;5070464;28;20040;-66
2021/05/09 07:41:22;;;;;;;7.10;3.75;;;24.20;43.50;;;;;;5065479;28;20466;-66
2021/05/09 07:43:49;;;;;;;5.95;3.78;;;24.10;44.70;;;;;;5070545;28;20058;-66
2021/05/09 07:46:14;;;;;;;5.05;3.55;;;23.80;44.20;;;;;;5070965;28;20357;-66
2021/05/09 07:48:40;;;;;;;4.78;3.38;;;23.40;45.70;;;;;;5069471;28;20040;-66
2021/05/09 07:51:06;;;;;;;3.58;3.08;;;23.20;44.50;;;;;;5070606;28;20080;-66
2021/05/09 07:53:31;;;;;;;4.82;3.17;;;22.80;45.10;;;;;;5069873;28;20064;-66
2021/05/09 07:55:59;;;;;;;3.88;3.38;;;22.60;45.30;;;;;;5070923;28;20032;-66
2021/05/09 07:58:25;;;;;;;3.80;3.28;;;22.40;46.00;;;;;;5069579;28;20123;-66
2021/05/09 08:00:50;;;;;;;5.47;3.60;;;22.10;48.30;;;;;;5070400;28;20074;-66
2021/05/09 08:03:17;;;;;;;6.47;3.42;;;21.80;49.80;;;;;;5045690;28;20036;-66
2021/05/09 08:05:43;;;;;;;3.90;3.33;;;21.60;49.60;;;;;;5097902;23;20056;-67
2021/05/09 08:08:08;;;;;;;5.35;3.20;;;21.50;50.00;;;;;;5085100;28;20471;-67
2021/05/09 08:10:38;;;;;;;3.67;3.05;;;21.40;49.40;;;;;;5086683;28;20453;-67
2021/05/09 08:13:05;;;;;;;4.47;3.30;;;21.30;50.00;;;;;;5084384;28;20272;-66
2021/05/09 08:15:31;;;;;;;5.18;3.22;;;21.20;50.40;;;;;;5089315;28;20514;-67
2021/05/09 08:17:57;;;;;;;4.18;2.63;;;21.10;49.90;;;;;;5087639;28;20035;-67
2021/05/09 08:20:24;;;;;;;4.43;3.08;;;21.00;51.20;;;;;;5086485;28;20036;-67
2021/05/09 08:22:51;;;;;;;7.47;2.80;;;20.90;51.60;;;;;;5083682;28;20032;-67
